Time;durP1;ratioP1;P1;durP2;ratioP2;P2;SDS_P1;SDS_P2;PMS_P1;PMS_P2;Temp;Humidity;BMP_temperature;BMP_pressure;BME280_temperature;BME280_humidity;BME280_pressure;Samples;Min_cycle;Max_cycle;Signal;HPM_P1;HPM_P2
2023/07/28 00:00:19;;;;;;;;;3.00;3.00;;;;;24.66;37.14;99876.55;109968;1256;18584;-35
2023/07/28 00:03:06;;;;;;;;;5.00;3.00;;;;;24.67;37.38;99880.23;109981;1268;22223;-36
2023/07/28 00:05:34;;;;;;;;;5.00;4.00;;;;;24.66;37.24;99873.52;109994;1253;19606;-36
2023/07/28 00:08:01;;;;;;;;;5.00;5.00;;;;;24.66;37.37;99866.31;109998;1261;20021;-36
2023/07/28 00:10:28;;;;;;;;;4.00;4.00;;;;;24.66;37.29;99859.02;109903;1267;19332;-36
2023/07/28 00:12:55;;;;;;;;;3.00;3.00;;;;;24.64;37.15;99864.27;109961;1254;22242;-36
2023/07/28 00:15:23;;;;;;;;;5.00;5.00;;;;;24.64;37.34;99855.04;109981;1254;20099;-37
2023/07/28 00:17:50;;;;;;;;;2.00;2.00;;;;;24.64;37.28;99856.13;109866;1267;133740;-36
2023/07/28 00:20:17;;;;;;;;;3.67;3.67;;;;;24.64;37.06;99853.09;109995;1253;19598;-35
2023/07/28 00:22:45;;;;;;;;;3.00;3.00;;;;;24.66;37.23;99854.66;109963;1253;20059;-35
2023/07/28 00:25:12;;;;;;;;;5.00;3.00;;;;;24.66;37.15;99852.78;109960;1253;20615;-37
2023/07/28 00:27:39;;;;;;;;;5.00;5.00;;;;;24.66;37.30;99852.39;109976;1262;19486;-37
2023/07/28 00:30:07;;;;;;;;;3.00;3.00;;;;;24.64;37.18;99845.66;109924;1267;22184;-35
2023/07/28 00:32:34;;;;;;;;;5.50;5.00;;;;;24.66;37.07;99849.82;109883;1262;20860;-38
2023/07/28 00:35:01;;;;;;;;;5.00;3.00;;;;;24.66;37.15;99853.94;109948;1268;18414;-37
2023/07/28 00:37:28;;;;;;;;;5.00;3.00;;;;;24.65;37.10;99851.97;110028;1267;18619;-36
2023/07/28 00:39:56;;;;;;;;;2.00;2.00;;;;;24.65;37.09;99846.82;110030;1253;20872;-35
2023/07/28 00:42:23;;;;;;;;;3.00;3.00;;;;;24.65;37.12;99846.65;109980;1267;18184;-36
2023/07/28 00:44:50;;;;;;;;;5.00;5.00;;;;;24.65;37.11;99846.23;109925;1254;19090;-36
2023/07/28 00:47:18;;;;;;;;;3.00;3.00;;;;;24.65;37.19;99841.47;109963;1253;20832;-35
2023/07/28 00:49:45;;;;;;;;;3.00;3.00;;;;;24.64;37.33;99839.73;109981;1268;22031;-36
2023/07/28 00:52:12;;;;;;;;;2.00;2.00;;;;;24.64;37.12;99845.11;110004;1253;19958;-34
2023/07/28 00:54:40;;;;;;;;;5.00;3.00;;;;;24.65;37.30;99837.09;109990;1254;20757;-36
2023/07/28 00:57:07;;;;;;;;;3.00;3.00;;;;;24.63;37.12;99839.83;109984;1253;21563;-36
2023/07/28 00:59:34;;;;;;;;;5.00;5.00;;;;;24.65;37.21;99839.70;110002;1254;20287;-36
2023/07/28 01:02:02;;;;;;;;;5.00;5.00;;;;;24.64;37.16;99836.84;110021;1254;20829;-35
2023/07/28 01:04:29;;;;;;;;;5.00;5.00;;;;;24.65;37.30;99829.42;109965;1267;18393;-35
2023/07/28 01:06:57;;;;;;;;;3.00;3.00;;;;;24.64;37.09;99829.13;109976;1263;21074;-37
2023/07/28 01:09:24;;;;;;;;;5.00;5.00;;;;;24.63;37.30;99826.45;109988;1253;20837;-35
2023/07/28 01:11:51;;;;;;;;;;;;;;;24.63;37.37;99821.59;109921;1253;19731;-35
2023/07/28 01:14:19;;;;;;;;;;;;;;;24.62;37.38;99822.23;109995;1267;18224;-36
2023/07/28 01:16:46;;;;;;;;;3.00;3.00;;;;;24.65;37.28;99817.44;109987;1253;21930;-36
2023/07/28 01:19:14;;;;;;;;;5.00;3.00;;;;;24.63;37.45;99815.66;109981;1265;22644;-35
2023/07/28 01:21:43;;;;;;;;;6.00;5.00;;;;;24.63;37.25;99810.64;109977;1267;18658;-36
2023/07/28 01:24:11;;;;;;;;;6.00;5.00;;;;;24.63;37.29;99802.02;109912;1253;19675;-36
2023/07/28 01:26:38;;;;;;;;;3.00;3.00;;;;;24.63;37.36;99802.04;109965;1267;19588;-36
2023/07/28 01:29:05;;;;;;;;;6.00;5.00;;;;;24.62;37.58;99797.07;110033;1253;20476;-36
2023/07/28 01:31:33;;;;;;;;;5.00;5.00;;;;;24.60;37.40;99796.27;110035;1253;20050;-36
2023/07/28 01:34:00;;;;;;;;;5.00;5.00;;;;;24.62;37.24;99796.48;109984;1263;19516;-36
2023/07/28 01:36:27;;;;;;;;;6.00;5.00;;;;;24.62;37.32;99792.63;109987;1259;21140;-36
2023/07/28 01:38:55;;;;;;;;;5.00;3.00;;;;;24.63;37.43;99796.17;109910;1254;20676;-36
2023/07/28 01:41:22;;;;;;;;;5.00;5.00;;;;;24.62;37.38;99793.08;109877;1254;19596;-36
2023/07/28 01:43:49;;;;;;;;;6.00;5.00;;;;;24.62;37.59;99790.40;110002;1253;20023;-35
2023/07/28 01:46:17;;;;;;;;;5.00;5.00;;;;;24.61;37.55;99785.67;109843;1254;21059;-35
2023/07/28 01:48:44;;;;;;;;;5.00;3.00;;;;;24.60;37.33;99782.73;109958;1253;19650;-35
2023/07/28 01:51:11;;;;;;;;;5.00;5.00;;;;;24.62;37.55;99779.55;109992;1267;18624;-35
2023/07/28 01:53:38;;;;;;;;;6.50;6.00;;;;;24.62;37.54;99777.75;110030;1252;21623;-36
2023/07/28 01:56:06;;;;;;;;;5.00;5.00;;;;;24.64;37.45;99776.42;109970;1254;22786;-36
2023/07/28 01:58:33;;;;;;;;;3.00;3.00;;;;;24.63;37.40;99770.33;109979;1254;20110;-35
2023/07/28 02:01:00;;;;;;;;;7.00;5.00;;;;;24.63;37.46;99773.33;109952;1268;22137;-36
2023/07/28 02:03:28;;;;;;;;;5.00;5.00;;;;;24.63;37.61;99775.81;109985;1252;22083;-36
2023/07/28 02:05:55;;;;;;;;;4.00;4.00;;;;;24.63;37.72;99775.04;109943;1260;20088;-36
2023/07/28 02:08:22;;;;;;;;;5.00;3.00;;;;;24.62;37.63;99777.67;109987;1268;23390;-36
2023/07/28 02:10:50;;;;;;;;;5.00;5.00;;;;;24.62;37.62;99776.71;109951;1267;23052;-36
2023/07/28 02:13:17;;;;;;;;;2.00;2.00;;;;;24.62;37.68;99770.52;109980;1268;22765;-35
2023/07/28 02:15:44;;;;;;;;;5.00;5.00;;;;;24.63;37.77;99773.84;109975;1259;19611;-35
2023/07/28 02:18:11;;;;;;;;;3.00;3.00;;;;;24.63;38.00;99772.85;110010;1254;19697;-35
2023/07/28 02:20:39;;;;;;;;;3.00;3.00;;;;;24.63;37.91;99771.43;109964;1254;22728;-35
2023/07/28 02:23:06;;;;;;;;;5.00;3.00;;;;;24.62;38.00;99773.33;110006;1268;19379;-35
2023/07/28 02:25:33;;;;;;;;;4.00;4.00;;;;;24.61;38.18;99770.04;109926;1254;20501;-35
2023/07/28 02:28:01;;;;;;;;;3.00;3.00;;;;;24.61;38.22;99765.01;110005;1259;18697;-35
2023/07/28 02:30:28;;;;;;;;;3.00;3.00;;;;;24.61;38.13;99757.80;109942;1254;20795;-35
2023/07/28 02:32:55;;;;;;;;;3.00;3.00;;;;;24.61;38.37;99758.50;109940;1260;19499;-35
2023/07/28 02:35:23;;;;;;;;;3.67;3.67;;;;;24.61;38.13;99757.96;109943;1267;18646;-35
2023/07/28 02:37:50;;;;;;;;;3.00;3.00;;;;;24.62;38.30;99757.22;109962;1267;23334;-35
2023/07/28 02:40:17;;;;;;;;;3.00;3.00;;;;;24.62;38.36;99754.26;109996;1268;18376;-36
2023/07/28 02:42:45;;;;;;;;;3.00;3.00;;;;;24.61;38.52;99752.81;109982;1254;21256;-36
2023/07/28 02:45:12;;;;;;;;;4.33;4.33;;;;;24.61;38.57;99747.39;109978;1263;20819;-34
2023/07/28 02:47:39;;;;;;;;;6.00;5.00;;;;;24.61;38.38;99743.27;109951;1268;18489;-36
2023/07/28 02:50:06;;;;;;;;;4.00;4.00;;;;;24.62;38.36;99747.44;109997;1255;20140;-36
2023/07/28 02:52:34;;;;;;;;;5.00;4.00;;;;;24.62;38.57;99749.39;109894;1254;20674;-34
2023/07/28 02:55:01;;;;;;;;;3.00;3.00;;;;;24.61;38.78;99749.59;109979;1263;19489;-36
2023/07/28 02:57:28;;;;;;;;;3.00;3.00;;;;;24.62;38.54;99746.30;109990;1255;20103;-35
2023/07/28 02:59:56;;;;;;;;;5.00;5.00;;;;;24.63;38.56;99749.59;109971;1253;20868;-34
2023/07/28 03:02:23;;;;;;;;;3.00;3.00;;;;;24.60;38.95;99750.55;110001;1254;19647;-35
2023/07/28 03:04:50;;;;;;;;;5.50;5.00;;;;;24.60;38.98;99744.77;110009;1253;20038;-36
2023/07/28 03:07:18;;;;;;;;;3.00;3.00;;;;;24.62;38.70;99744.73;109958;1254;20841;-35
2023/07/28 03:09:45;;;;;;;;;2.00;2.00;;;;;24.62;38.99;99744.78;109981;1254;19682;-35
2023/07/28 03:12:12;;;;;;;;;3.00;3.00;;;;;24.61;38.87;99737.41;109991;1254;20050;-36
2023/07/28 03:14:40;;;;;;;;;3.00;3.00;;;;;24.61;39.03;99736.22;109991;1253;20839;-35
2023/07/28 03:17:07;;;;;;;;;3.00;3.00;;;;;24.60;38.95;99731.80;109956;1267;19593;-35
2023/07/28 03:19:34;;;;;;;;;3.00;3.00;;;;;24.59;39.13;99735.73;109968;1255;20055;-35
2023/07/28 03:22:02;;;;;;;;;3.00;3.00;;;;;24.60;39.15;99730.45;110014;1267;19352;-35
2023/07/28 03:24:29;;;;;;;;;5.00;5.00;;;;;24.60;38.94;99727.65;109927;1267;22939;-35
2023/07/28 03:26:56;;;;;;;;;3.00;3.00;;;;;24.61;39.12;99730.52;109991;1267;18803;-35
2023/07/28 03:29:23;;;;;;;;;5.00;5.00;;;;;24.60;39.33;99726.02;109989;1254;19402;-35
2023/07/28 03:31:51;;;;;;;;;5.00;3.00;;;;;24.61;39.30;99726.52;109972;1253;18481;-35
2023/07/28 03:34:18;;;;;;;;;5.00;5.00;;;;;24.60;39.17;99723.04;109941;1262;20238;-36
2023/07/28 03:36:45;;;;;;;;;3.00;3.00;;;;;24.59;39.35;99721.02;109979;1254;21259;-35
2023/07/28 03:39:13;;;;;;;;;3.00;3.00;;;;;24.59;39.15;99714.44;110002;1253;19617;-35
2023/07/28 03:41:40;;;;;;;;;3.00;2.50;;;;;24.61;39.42;99719.40;110002;1259;22786;-36
2023/07/28 03:44:07;;;;;;;;;5.00;5.00;;;;;24.60;39.52;99714.21;109705;1254;20846;-36
2023/07/28 03:46:35;;;;;;;;;3.00;3.00;;;;;24.61;39.30;99713.29;109928;1265;19593;-35
2023/07/28 03:49:02;;;;;;;;;3.00;3.00;;;;;24.60;39.37;99712.61;110049;1268;18784;-35
2023/07/28 03:51:29;;;;;;;;;5.00;5.00;;;;;24.59;39.55;99714.09;110021;1268;20602;-35
2023/07/28 03:53:57;;;;;;;;;3.00;3.00;;;;;24.61;39.33;99712.67;109979;1254;20029;-35
2023/07/28 03:56:24;;;;;;;;;3.00;3.00;;;;;24.62;39.43;99714.57;109961;1254;20040;-37
2023/07/28 03:58:53;;;;;;;;;6.33;5.00;;;;;24.62;39.55;99708.00;109887;1267;19406;-36
2023/07/28 04:01:21;;;;;;;;;3.00;3.00;;;;;24.62;39.78;99704.42;109914;1254;19540;-36
2023/07/28 04:03:48;;;;;;;;;2.00;2.00;;;;;24.59;39.45;99705.77;109991;1254;20039;-34
2023/07/28 04:06:16;;;;;;;;;3.00;3.00;;;;;24.59;39.71;99703.26;109980;1253;19304;-36
2023/07/28 04:08:43;;;;;;;;;3.00;3.00;;;;;24.61;39.57;99704.23;109966;1267;22245;-35
2023/07/28 04:11:10;;;;;;;;;4.00;3.00;;;;;24.60;39.78;99700.98;109965;1267;19981;-35
2023/07/28 04:13:38;;;;;;;;;6.00;5.00;;;;;24.60;39.65;99704.27;109952;1253;22804;-35
2023/07/28 04:16:05;;;;;;;;;3.00;3.00;;;;;24.60;39.77;99698.56;109928;1254;21608;-35
2023/07/28 04:18:32;;;;;;;;;3.00;3.00;;;;;24.60;39.86;99698.14;109870;1268;19988;-36
2023/07/28 04:20:59;;;;;;;;;2.00;2.00;;;;;24.59;39.92;99696.95;109956;1252;19413;-36
2023/07/28 04:23:27;;;;;;;;;3.00;2.50;;;;;24.61;39.64;99695.53;109957;1254;21236;-36
2023/07/28 04:25:54;;;;;;;;;3.00;3.00;;;;;24.61;39.75;99693.50;109913;1254;20073;-36
2023/07/28 04:28:24;;;;;;;;;3.00;3.00;;;;;24.60;39.88;99692.60;109912;1253;22280;-36
2023/07/28 04:30:51;;;;;;;;;3.00;3.00;;;;;24.58;40.08;99689.86;109900;1254;19597;-35
2023/07/28 04:33:18;;;;;;;;;6.00;5.00;;;;;24.60;39.80;99688.13;109882;1262;19865;-35
2023/07/28 04:35:46;;;;;;;;;2.67;2.67;;;;;24.59;39.98;99684.35;109911;1264;20819;-35
2023/07/28 04:38:13;;;;;;;;;5.00;3.00;;;;;24.62;40.17;99683.84;109914;1254;19582;-36
2023/07/28 04:40:41;;;;;;;;;3.00;3.00;;;;;24.62;40.06;99683.61;109907;1267;18782;-35
2023/07/28 04:43:08;;;;;;;;;3.00;3.00;;;;;24.60;40.19;99677.42;109870;1260;19339;-35
2023/07/28 04:45:35;;;;;;;;;3.00;3.00;;;;;24.60;40.30;99678.75;109822;1254;20979;-35
2023/07/28 04:48:03;;;;;;;;;3.00;3.00;;;;;24.61;40.12;99677.30;109852;1251;20047;-35
2023/07/28 04:50:32;;;;;;;;;5.50;5.00;;;;;24.61;40.15;99676.75;109874;1253;21126;-34
2023/07/28 04:52:59;;;;;;;;;5.00;3.00;;;;;24.60;40.53;99676.39;109926;1254;19657;-35
2023/07/28 04:55:27;;;;;;;;;5.00;5.00;;;;;24.60;40.38;99675.69;109890;1253;20027;-34
2023/07/28 04:57:54;;;;;;;;;3.00;3.00;;;;;24.59;40.39;99677.91;109914;1254;20755;-34
2023/07/28 05:00:22;;;;;;;;;3.00;3.00;;;;;24.60;40.22;99674.36;109917;1259;19584;-34
2023/07/28 05:02:49;;;;;;;;;3.00;3.00;;;;;24.60;40.59;99673.43;109931;1253;20116;-35
2023/07/28 05:05:17;;;;;;;;;5.00;4.00;;;;;24.60;40.46;99675.84;109986;1254;22263;-35
2023/07/28 05:07:44;;;;;;;;;3.00;3.00;;;;;24.60;40.61;99681.16;110020;1267;19551;-34
2023/07/28 05:10:11;;;;;;;;;6.00;5.00;;;;;24.58;40.65;99674.85;109999;1267;18589;-35
2023/07/28 05:12:39;;;;;;;;;3.00;3.00;;;;;24.61;41.49;99673.02;109868;1267;19403;-35
2023/07/28 05:15:10;;;;;;;;;3.00;2.50;;;;;24.65;41.51;99674.44;109720;1254;19679;-34
2023/07/28 05:17:37;;;;;;;;;3.00;3.00;;;;;24.68;41.61;99673.66;109699;1261;19998;-34
2023/07/28 05:20:04;;;;;;;;;6.00;6.00;;;;;24.70;41.89;99673.49;109593;1262;22013;-35
2023/07/28 05:22:32;;;;;;;;;6.00;5.00;;;;;24.71;41.70;99672.77;109590;1268;18343;-36
2023/07/28 05:24:59;;;;;;;;;4.50;3.00;;;;;24.71;42.26;99670.56;109604;1269;18644;-36
2023/07/28 05:27:26;;;;;;;;;3.00;3.00;;;;;24.66;42.15;99668.38;109568;1254;21163;-35
2023/07/28 05:29:54;;;;;;;;;3.67;3.67;;;;;24.67;42.23;99673.52;109651;1253;22379;-36
2023/07/28 05:32:21;;;;;;;;;7.00;6.00;;;;;24.68;42.59;99671.70;109670;1254;20134;-36
2023/07/28 05:34:49;;;;;;;;;3.00;3.00;;;;;24.70;42.66;99667.86;109677;1254;20774;-35
2023/07/28 05:37:16;;;;;;;;;5.00;5.00;;;;;24.66;42.70;99668.85;109723;1268;19566;-36
2023/07/28 05:39:44;;;;;;;;;3.00;3.00;;;;;24.63;43.25;99666.70;109576;1254;22923;-35
2023/07/28 05:42:11;;;;;;;;;;;;;;;24.56;43.52;99665.95;109542;1269;22735;-43
2023/07/28 05:44:38;;;;;;;;;7.00;6.00;;;;;24.48;44.21;99663.18;109611;1269;18376;-36
2023/07/28 05:47:06;;;;;;;;;8.00;8.00;;;;;24.41;45.46;99659.67;109686;1254;20002;-36
2023/07/28 05:49:33;;;;;;;;;6.50;6.00;;;;;24.29;46.51;99661.85;109601;1253;20656;-36
2023/07/28 05:52:00;;;;;;;;;7.00;7.00;;;;;24.15;47.00;99662.27;109635;1253;18652;-35
2023/07/28 05:54:28;;;;;;;;;;;;;;;24.16;47.94;99655.65;109618;1269;18965;-36
2023/07/28 05:56:55;;;;;;;;;9.00;9.00;;;;;24.09;48.68;99659.23;109601;1254;20800;-36
2023/07/28 05:59:22;;;;;;;;;7.50;6.50;;;;;23.99;48.98;99656.03;109603;1253;19314;-36
2023/07/28 06:01:50;;;;;;;;;7.00;6.00;;;;;23.86;50.11;99657.77;109624;1254;20104;-36
2023/07/28 06:04:18;;;;;;;;;7.00;7.00;;;;;23.92;49.78;99657.45;109682;1252;20687;-35
2023/07/28 06:06:45;;;;;;;;;9.00;9.00;;;;;23.76;50.74;99654.13;109965;1267;18548;-36
2023/07/28 06:09:12;;;;;;;;;7.00;7.00;;;;;23.74;50.61;99652.45;110003;1267;18831;-35
2023/07/28 06:11:39;;;;;;;;;9.00;9.00;;;;;23.54;51.19;99658.50;109995;1253;20783;-35
2023/07/28 06:14:07;;;;;;;;;7.00;7.00;;;;;23.65;50.98;99658.48;110005;1253;20794;-35
2023/07/28 06:16:34;;;;;;;;;7.00;7.00;;;;;23.65;51.15;99659.36;110011;1268;18618;-34
2023/07/28 06:19:01;;;;;;;;;9.00;7.00;;;;;23.47;51.25;99656.34;109979;1252;19358;-36
2023/07/28 06:21:29;;;;;;;;;10.00;9.00;;;;;23.47;51.10;99652.66;109982;1267;18570;-35
2023/07/28 06:23:56;;;;;;;;;9.00;9.00;;;;;23.34;51.53;99652.79;109985;1268;20252;-34
2023/07/28 06:26:23;;;;;;;;;7.00;7.00;;;;;23.48;51.12;99652.64;109995;1254;21949;-37
2023/07/28 06:28:51;;;;;;;;;9.00;7.00;;;;;23.48;51.04;99653.41;110016;1253;22143;-36
2023/07/28 06:31:18;;;;;;;;;9.00;7.00;;;;;23.49;50.84;99649.04;109951;1254;20142;-35
2023/07/28 06:33:45;;;;;;;;;9.00;8.33;;;;;23.45;50.87;99647.34;109907;1268;22069;-35
2023/07/28 06:36:13;;;;;;;;;9.50;9.00;;;;;23.48;51.29;99646.45;110024;1252;22906;-36
2023/07/28 06:38:40;;;;;;;;;10.67;9.33;;;;;23.36;51.76;99648.08;110041;1267;18595;-36
2023/07/28 06:41:08;;;;;;;;;10.00;10.00;;;;;23.33;51.85;99647.67;110003;1267;19545;-36
2023/07/28 06:43:35;;;;;;;;;6.67;6.67;;;;;23.25;52.52;99649.63;109991;1267;18598;-36
2023/07/28 06:46:02;;;;;;;;;10.00;9.00;;;;;23.08;52.94;99655.22;109972;1268;18899;-36
2023/07/28 06:48:30;;;;;;;;;7.00;7.00;;;;;23.17;52.80;99653.34;110011;1254;20752;-35
2023/07/28 06:50:57;;;;;;;;;6.00;6.00;;;;;23.33;52.21;99649.60;109978;1254;19982;-35
2023/07/28 06:53:24;;;;;;;;;;;;;;;23.44;51.99;99650.43;109987;1254;20126;-35
2023/07/28 06:55:52;;;;;;;;;6.00;6.00;;;;;23.58;51.28;99651.61;110002;1268;22326;-35
2023/07/28 06:58:19;;;;;;;;;7.00;7.00;;;;;23.64;51.54;99647.07;109975;1267;18308;-35
2023/07/28 07:00:46;;;;;;;;;6.00;6.00;;;;;23.73;51.24;99645.56;109974;1254;20033;-36
2023/07/28 07:03:14;;;;;;;;;7.00;7.00;;;;;23.77;51.17;99650.05;109951;1267;19381;-36
2023/07/28 07:05:43;;;;;;;;;7.00;6.00;;;;;23.80;50.91;99650.06;110027;1253;19637;-35
2023/07/28 07:08:11;;;;;;;;;6.00;6.00;;;;;23.83;51.07;99651.89;110003;1251;20236;-34
2023/07/28 07:10:39;;;;;;;;;6.00;6.00;;;;;23.84;51.47;99645.92;109993;1253;20803;-36
2023/07/28 07:13:06;;;;;;;;;6.00;6.00;;;;;23.83;51.51;99650.58;109991;1254;20870;-36
2023/07/28 07:15:33;;;;;;;;;7.00;6.67;;;;;23.87;51.21;99651.62;109997;1254;20087;-36
2023/07/28 07:18:01;;;;;;;;;7.00;6.00;;;;;23.88;51.27;99655.64;109960;1267;21606;-36
2023/07/28 07:20:28;;;;;;;;;;;;;;;23.88;51.54;99642.84;109958;1253;19707;-36
2023/07/28 07:22:55;;;;;;;;;6.00;6.00;;;;;23.92;51.38;99637.64;109990;1253;19686;-35
2023/07/28 07:25:23;;;;;;;;;6.00;5.00;;;;;23.88;51.47;99631.73;109995;1254;20818;-36
2023/07/28 07:27:51;;;;;;;;;8.00;7.00;;;;;23.86;51.77;99640.32;109982;1267;18302;-36
2023/07/28 07:30:18;;;;;;;;;6.00;6.00;;;;;23.84;51.68;99643.66;109950;1267;18633;-36
2023/07/28 07:32:45;;;;;;;;;6.00;5.50;;;;;23.87;51.68;99646.91;109982;1268;20743;-36
2023/07/28 07:35:13;;;;;;;;;7.00;7.00;;;;;23.74;52.00;99640.19;109983;1253;19932;-36
2023/07/28 07:37:40;;;;;;;;;5.00;5.00;;;;;23.67;52.41;99637.30;109968;1267;18674;-35
2023/07/28 07:40:07;;;;;;;;;5.00;5.00;;;;;23.65;52.39;99636.02;109874;1254;20785;-34
2023/07/28 07:42:34;;;;;;;;;6.00;6.00;;;;;23.67;52.49;99642.96;109987;1267;18428;-35
2023/07/28 07:45:02;;;;;;;;;3.00;3.00;;;;;23.67;52.55;99638.36;110011;1254;20112;-34
2023/07/28 07:47:29;;;;;;;;;6.00;5.00;;;;;23.76;52.19;99638.81;110005;1253;22025;-36
2023/07/28 07:49:56;;;;;;;;;5.00;5.00;;;;;23.82;51.75;99636.55;109928;1253;20448;-36
2023/07/28 07:52:24;;;;;;;;;5.50;5.50;;;;;23.83;52.21;99636.19;109915;1254;20087;-36
2023/07/28 07:54:51;;;;;;;;;3.00;3.00;;;;;23.83;51.91;99639.64;109966;1254;21223;-36
2023/07/28 07:57:19;;;;;;;;;5.00;5.00;;;;;23.87;51.71;99639.13;109954;1255;22294;-36
2023/07/28 07:59:46;;;;;;;;;3.00;3.00;;;;;23.93;51.40;99637.61;109999;1254;21037;-36
2023/07/28 08:02:13;;;;;;;;;5.00;5.00;;;;;23.87;51.89;99631.70;109971;1268;19360;-36
2023/07/28 08:04:41;;;;;;;;;5.00;5.00;;;;;23.86;52.06;99631.73;109957;1267;18445;-35
2023/07/28 08:07:08;;;;;;;;;5.00;5.00;;;;;23.98;51.66;99626.58;109988;1268;18628;-36
2023/07/28 08:09:37;;;;;;;;;5.50;5.00;;;;;23.97;51.87;99630.44;109990;1265;19380;-35
2023/07/28 08:12:04;;;;;;;;;5.00;5.00;;;;;23.93;51.99;99633.59;110021;1267;18542;-35
2023/07/28 08:14:31;;;;;;;;;11.00;10.00;;;;;23.97;52.12;99630.56;109978;1267;20914;-35
2023/07/28 08:16:59;;;;;;;;;24.50;19.50;;;;;24.03;52.08;99632.12;109977;1255;22835;-35
2023/07/28 08:19:26;;;;;;;;;26.00;21.00;;;;;23.93;52.46;99632.75;109989;1263;20046;-36
2023/07/28 08:21:53;;;;;;;;;60.00;42.50;;;;;23.96;52.88;99636.55;109989;1254;22295;-35
2023/07/28 08:24:21;;;;;;;;;51.00;42.00;;;;;23.94;53.02;99638.13;110000;1254;20780;-36
2023/07/28 08:26:48;;;;;;;;;58.00;42.00;;;;;23.99;52.78;99638.72;109999;1254;20045;-35
2023/07/28 08:29:16;;;;;;;;;72.00;54.00;;;;;23.99;52.83;99643.80;109946;1254;20140;-34
2023/07/28 08:31:43;;;;;;;;;69.50;51.00;;;;;23.99;52.91;99639.91;109958;1267;19375;-35
2023/07/28 08:34:11;;;;;;;;;73.00;53.67;;;;;24.00;53.11;99630.60;109868;1268;19407;-35
2023/07/28 08:36:38;;;;;;;;;77.00;55.00;;;;;23.96;53.37;99631.73;109963;1262;20302;-35
2023/07/28 08:39:05;;;;;;;;;73.00;55.00;;;;;23.96;53.17;99633.59;110003;1267;19336;-36
2023/07/28 08:41:33;;;;;;;;;71.50;53.00;;;;;24.00;53.22;99635.27;109995;1254;18548;-36
2023/07/28 08:44:00;;;;;;;;;68.00;50.00;;;;;24.02;53.19;99636.64;109948;1267;20074;-36
2023/07/28 08:46:28;;;;;;;;;45.00;38.00;;;;;24.10;53.38;99636.74;110005;1253;21258;-35
2023/07/28 08:48:56;;;;;;;;;38.00;32.00;;;;;24.13;53.95;99634.95;109986;1254;22220;-36
2023/07/28 08:51:23;;;;;;;;;23.00;23.00;;;;;24.12;54.17;99636.33;109999;1260;20055;-36
2023/07/28 08:53:51;;;;;;;;;25.50;21.50;;;;;24.09;53.97;99638.96;110004;1253;20757;-36
2023/07/28 08:56:18;;;;;;;;;20.00;19.00;;;;;24.08;53.92;99635.48;109989;1267;18775;-35
2023/07/28 08:58:46;;;;;;;;;19.50;14.00;;;;;24.10;53.88;99637.84;110019;1251;20140;-36
2023/07/28 09:01:13;;;;;;;;;17.00;15.00;;;;;24.06;54.10;99634.13;109977;1267;22296;-36
2023/07/28 09:03:41;;;;;;;;;11.00;10.33;;;;;24.05;54.10;99630.91;109988;1254;22643;-35
2023/07/28 09:06:09;;;;;;;;;12.00;11.50;;;;;24.00;54.13;99625.52;109995;1266;20163;-33
2023/07/28 09:08:36;;;;;;;;;12.00;10.00;;;;;24.00;54.46;99620.41;109988;1267;20846;-36
2023/07/28 09:11:05;;;;;;;;;9.00;9.00;;;;;24.04;54.23;99623.73;109963;1253;18562;-34
2023/07/28 09:13:32;;;;;;;;;8.00;8.00;;;;;24.05;54.05;99625.83;109974;1267;18697;-35
2023/07/28 09:16:00;;;;;;;;;9.00;9.00;;;;;23.72;55.39;99628.09;109968;1263;20690;-35
2023/07/28 09:18:28;;;;;;;;;10.00;10.00;;;;;23.58;56.29;99627.14;109973;1253;19638;-35
2023/07/28 09:20:55;;;;;;;;;9.00;7.00;;;;;23.51;56.44;99625.88;109984;1254;20216;-35
2023/07/28 09:23:23;;;;;;;;;10.50;8.00;;;;;22.97;58.49;99626.42;109990;1268;19393;-35
2023/07/28 09:25:50;;;;;;;;;11.00;10.00;;;;;23.31;57.61;99625.81;109972;1268;18353;-35
2023/07/28 09:28:17;;;;;;;;;9.00;8.00;;;;;23.40;57.08;99624.47;109960;1254;20024;-35
2023/07/28 09:30:44;;;;;;;;;10.00;10.00;;;;;23.45;56.73;99621.27;109968;1254;20824;-36
2023/07/28 09:33:12;;;;;;;;;10.00;9.00;;;;;23.51;56.54;99620.40;109980;1262;19762;-36
2023/07/28 09:35:39;;;;;;;;;11.00;10.00;;;;;23.51;56.95;99620.73;109961;1254;22179;-36
2023/07/28 09:38:06;;;;;;;;;11.50;10.50;;;;;23.48;56.77;99618.80;109698;1254;22040;-37
2023/07/28 09:40:34;;;;;;;;;9.00;8.00;;;;;23.56;56.81;99616.08;109912;1261;19898;-37
2023/07/28 09:43:01;;;;;;;;;9.00;7.67;;;;;23.40;57.31;99616.61;110036;1267;18859;-35
2023/07/28 09:45:28;;;;;;;;;9.00;9.00;;;;;23.40;57.34;99612.66;110048;1254;20815;-36
2023/07/28 09:47:56;;;;;;;;;10.50;10.50;;;;;23.43;57.50;99612.48;109988;1254;19588;-36
2023/07/28 09:50:23;;;;;;;;;9.00;9.00;;;;;23.43;57.13;99609.14;109986;1254;20176;-35
2023/07/28 09:52:50;;;;;;;;;13.00;11.00;;;;;23.48;57.16;99610.93;109957;1255;20731;-36
2023/07/28 09:55:18;;;;;;;;;13.00;10.00;;;;;23.51;57.07;99612.64;109986;1268;22367;-35
2023/07/28 09:57:50;;;;;;;;;10.00;10.00;;;;;23.46;57.39;99606.23;109994;1253;18758;-36
2023/07/28 10:00:21;;;;;;;;;9.00;9.00;;;;;23.51;57.10;99607.60;109994;1253;20790;-36
2023/07/28 10:02:50;;;;;;;;;10.00;9.00;;;;;23.34;57.97;99610.48;109493;1254;18558;-35
2023/07/28 10:05:18;;;;;;;;;9.50;8.00;;;;;23.32;57.87;99610.54;110011;1253;18685;-36
2023/07/28 10:07:47;;;;;;;;;9.00;9.00;;;;;23.23;58.34;99609.89;109990;1268;20870;-36
2023/07/28 10:10:17;;;;;;;;;11.00;10.00;;;;;23.32;57.87;99608.28;109469;1269;20111;-35
2023/07/28 10:12:53;;;;;;;;;10.00;10.00;;;;;23.00;59.41;99610.12;109970;1267;20027;-36
2023/07/28 10:15:21;;;;;;;;;11.50;11.50;;;;;23.22;58.95;99614.52;109978;1253;20627;-36
2023/07/28 10:17:49;;;;;;;;;10.00;10.00;;;;;23.32;58.53;99614.33;109462;1268;19960;-36
2023/07/28 10:20:17;;;;;;;;;9.00;9.00;;;;;23.32;58.80;99609.28;110028;1267;18671;-35
2023/07/28 10:22:45;;;;;;;;;10.00;10.00;;;;;23.38;59.02;99607.06;109987;1267;20861;-35
2023/07/28 10:25:13;;;;;;;;;10.00;10.00;;;;;23.37;59.18;99606.31;109417;1268;21003;-35
2023/07/28 10:27:41;;;;;;;;;13.50;11.00;;;;;23.41;59.18;99600.52;109977;1253;20066;-36
2023/07/28 10:30:09;;;;;;;;;10.00;10.00;;;;;23.45;59.27;99599.40;109923;1267;19320;-34
2023/07/28 10:32:37;;;;;;;;;;;;;;;23.47;59.26;99599.86;109909;1267;19908;-35
2023/07/28 10:35:10;;;;;;;;;11.00;10.50;;;;;23.38;59.85;99599.56;109982;1252;21676;-35
2023/07/28 10:37:38;;;;;;;;;10.00;10.00;;;;;23.43;59.85;99597.91;110017;1267;19469;-34
2023/07/28 10:40:07;;;;;;;;;13.50;11.00;;;;;23.38;60.01;99595.02;109979;1267;18612;-34
2023/07/28 10:42:38;;;;;;;;;14.67;11.00;;;;;23.17;61.04;99592.78;109953;1267;19963;-35
2023/07/28 10:45:05;;;;;;;;;14.00;13.00;;;;;22.72;62.76;99595.59;109975;1268;19425;-36
2023/07/28 10:47:33;;;;;;;;;14.00;11.00;;;;;23.11;61.52;99593.02;109996;1253;19925;-35
2023/07/28 10:50:01;;;;;;;;;12.00;9.33;;;;;23.06;62.07;99589.04;109989;1267;20200;-35
2023/07/28 10:52:28;;;;;;;;;10.50;10.50;;;;;23.15;61.83;99591.48;110008;1252;19435;-35
2023/07/28 10:54:57;;;;;;;;;10.00;10.00;;;;;23.35;61.13;99586.89;110012;1254;19959;-35
2023/07/28 10:57:26;;;;;;;;;13.00;10.00;;;;;23.27;61.83;99582.27;109992;1251;22301;-35
2023/07/28 10:59:53;;;;;;;;;8.50;8.50;;;;;23.37;61.87;99582.27;109956;1254;20813;-35
2023/07/28 11:02:20;;;;;;;;;10.00;9.00;;;;;23.43;61.43;99581.74;109966;1254;20010;-35
2023/07/28 11:04:48;;;;;;;;;8.00;8.00;;;;;23.42;61.69;99577.92;109858;1253;20136;-35
2023/07/28 11:07:16;;;;;;;;;9.00;9.00;;;;;23.45;61.22;99577.16;109876;1254;19380;-35
2023/07/28 11:09:43;;;;;;;;;9.00;9.00;;;;;23.46;61.43;99578.29;109970;1254;19653;-35
2023/07/28 11:12:11;;;;;;;;;9.00;7.00;;;;;23.47;61.92;99576.23;109963;1254;20079;-36
2023/07/28 11:14:38;;;;;;;;;9.00;7.00;;;;;23.52;61.83;99579.31;109948;1254;21647;-36
2023/07/28 11:17:06;;;;;;;;;9.67;8.33;;;;;23.55;61.63;99583.80;109996;1252;19614;-35
2023/07/28 11:19:33;;;;;;;;;7.00;6.00;;;;;23.61;61.48;99581.13;110000;1259;19983;-35
2023/07/28 11:22:01;;;;;;;;;6.00;6.00;;;;;23.67;61.40;99583.76;109972;1254;20830;-35
2023/07/28 11:24:28;;;;;;;;;6.00;6.00;;;;;23.72;61.80;99584.89;109944;1253;19614;-35